Los Angeles International Airport Los Angeles US
ICAO: KLAX
IATA: LAX
Category: Large
Scheduled Services: Yes

Elevation: 125 ft
TransAlt. 18000 ft.

Airport Communications:
SOCAL APP:36.07
SOCAL APP:124.3
ATIS:133.8
CLNC DEL:120.35
SOCAL DEP:124.3
GND:121.65
CG:34.5
CG:898.4
AF:37.22
TWR:119.8
UNICOM:122.95

KLAX Zoom In..

If you have problems with the map follow the link
https://www.worldairports.se/pages/airport.php?
ICAO=KLAX

Runways:

(A) RW 06L length 8925 ft width 150 ft
ILS 108.50 / hdg 69

(B) RW 06R length 10285 ft width 150 ft
ILS 111.70 / hdg 69

(C) RW 07L length 12091 ft width 150 ft
ILS 111.10 / hdg 69

(D) RW 07R length 11095 ft width 200 ft
ILS 109.90 / hdg 69

(E) RW 24L length 10285 ft width 150 ft
ILS 111.70 / hdg 249

(F) RW 24R length 8925 ft width 150 ft
ILS 108.50 / hdg 249

(G) RW 25L length 11095 ft width 200 ft
ILS 109.90 / hdg 249

(H) RW 25R length 12091 ft width 150 ft
ILS 111.10 / hdg 249

Location; KLAX
Day. 13 / Time. 12.07 Zulu
* Altimeter: 30.14
* Temperature: 12° c. 53.6°f.
* Wind from: 000° Speed 00 kn.
Dewpoint: 11° c.
Visibility: 2 Statute Miles.
Clouds: Few 000 ft.
Clouds: Few 200 ft.
Clouds: Scattered 700 ft.
Clouds: Few 000 ft.
Conditions: Fog Patches.Conditions: Mist.Conditions: Fog.

KLAX 131207Z 00000KT 2SM R25L/1200V1400FT BCFG BR FEW000 FEW002 SCT007 12/11 A3014 RMK AO2 VIS E 1/4 VIS SE 1/2 VIS S 1 FG FEW000 T01220111 $


Wind - Calm.

 
 
jpsmedia worldairports.se 2019   terms of use